Sprague River, OR (97639)

5:58 PM PST on January 19, 2017 (GMT -0800)
MCQFO3 | | Change Station
Active Advisory: High Wind Watch

Elev 4418 ft 42.58 °N, 121.89 °W | Updated 1 hour ago

Mostly Cloudy
Mostly Cloudy
38.0 °F
Feels Like 33 °F
N
7.0
Wind Variable Wind from South
Gusts 11.0 mph

Today
High -- | Low -- °F
--% Chance of Precip.
Yesterday
High -- | Low -- °F
Precip. -- in
Pressure 29.61 in
Visibility 10.0 miles
Clouds Few 3700 ft
Overcast 5500 ft
Windchill 33 °F
Dew Point 28.0 °F
Humidity 66%
Rainfall 0.06 in
Snow Depth Not available.
7:30 AM 5:03 PM
Waning Gibbous, 49% visible
METAR KLMT 200153Z 16009KT 10SM FEW037 OVC055 02/M02 A2959 RMK AO2 SLP027 T00171022
Pressure 29.61 in
Visibility 10.0 miles
Clouds Few 3700 ft
Overcast 5500 ft
Windchill 33 °F
Dew Point 28.0 °F
Humidity 66%
Rainfall 0.06 in
Snow Depth Not available.
7:30 AM 5:03 PM
Waning Gibbous, 49% visible
METAR KLMT 200153Z 16009KT 10SM FEW037 OVC055 02/M02 A2959 RMK AO2 SLP027 T00171022

Get Your Daily Forecast Email!

Thanks for signing up!

Be on the lookout for a verification email in your inbox.

You'll start receiving the daily forecast at 8 AM.

×

10-Day Weather Forecast

Almanac

Astronomy

Jan. 19, 2017 Rise Set
Actual Time
Civil Twilight
Nautical Twilight
Astronomical Twilight
Moon
Length of Visible Light
Length of Day
Tomorrow will be .
, % of the Moon is Illuminated

Today's Extremes

State Highs State Lows

Community

WunderPhotos

Upload Photos

1,962,540 photos uploaded!

WunderBlog® & News

Nearby

Air Quality

  Air Quality AQ Index Pollutant
Not available.

Snow Depth

Station Depth Elevation

Earthquake Activity

City Distance Mag. Time & Date
Minimum magnitude displayed is 2.5.

Coastal Water Temperatures

Place Temperature

Stations

Nearby Weather Stations

Station Location Temp. Windchill Dew Point Humidity Wind Precip. Elev Updated Type
                   

Watches & Warnings

High Wind Watch
Issued: 2:07 PM PST Jan. 19, 2017 – National Weather Service

... High wind watch in effect from late Saturday night through
Sunday afternoon...

* winds... south 40 to 50 with gusts to 60 mph possible.

* Locations include... Klamath Falls... Lakeview... Alturas and all
area highways including much of 97... 140... 395 and 139.

* Impacts... strong winds may make travel difficult on area
roadways... especially for high profile vehicles. Structural
damage... tree damage... and power outages are all possible.

* View the hazard area in detail at
http://weather.Gov/Medford/hazard

Precautionary/preparedness actions...

A high wind watch means there is the potential for a hazardous
high wind event. Sustained winds of at least 40 mph... or gusts of
58 mph or stronger may occur. Continue to monitor the latest
forecasts.



Wright